sensor_id;sensor_type;location;lat;lon;timestamp;P1;durP1;ratioP1;P2;durP2;ratioP2
12407;SDS011;6268;48.188;17.134;2023-10-08T00:01:37;6.35;;;3.70;;
12407;SDS011;6268;48.188;17.134;2023-10-08T00:04:09;6.20;;;3.53;;
12407;SDS011;6268;48.188;17.134;2023-10-08T00:06:38;4.43;;;3.53;;
12407;SDS011;6268;48.188;17.134;2023-10-08T00:09:08;5.93;;;3.53;;
12407;SDS011;6268;48.188;17.134;2023-10-08T00:11:38;3.83;;;3.08;;
12407;SDS011;6268;48.188;17.134;2023-10-08T00:14:07;7.05;;;4.25;;
12407;SDS011;6268;48.188;17.134;2023-10-08T00:16:37;8.55;;;3.72;;
12407;SDS011;6268;48.188;17.134;2023-10-08T00:19:06;3.65;;;2.90;;
12407;SDS011;6268;48.188;17.134;2023-10-08T00:21:38;4.82;;;3.53;;
12407;SDS011;6268;48.188;17.134;2023-10-08T00:24:09;5.70;;;4.32;;
12407;SDS011;6268;48.188;17.134;2023-10-08T00:26:38;7.05;;;3.80;;
12407;SDS011;6268;48.188;17.134;2023-10-08T00:29:08;4.38;;;3.95;;
12407;SDS011;6268;48.188;17.134;2023-10-08T00:31:43;6.75;;;3.95;;
12407;SDS011;6268;48.188;17.134;2023-10-08T00:34:12;5.88;;;3.67;;
12407;SDS011;6268;48.188;17.134;2023-10-08T00:36:41;4.85;;;3.83;;
12407;SDS011;6268;48.188;17.134;2023-10-08T00:39:13;7.97;;;3.97;;
12407;SDS011;6268;48.188;17.134;2023-10-08T00:41:49;5.43;;;3.47;;
12407;SDS011;6268;48.188;17.134;2023-10-08T00:44:26;5.68;;;3.63;;
12407;SDS011;6268;48.188;17.134;2023-10-08T00:46:57;6.47;;;3.25;;
12407;SDS011;6268;48.188;17.134;2023-10-08T00:49:28;5.75;;;3.28;;
12407;SDS011;6268;48.188;17.134;2023-10-08T00:52:14;5.07;;;3.70;;
12407;SDS011;6268;48.188;17.134;2023-10-08T00:54:57;8.00;;;3.22;;
12407;SDS011;6268;48.188;17.134;2023-10-08T00:57:41;3.85;;;3.40;;
12407;SDS011;6268;48.188;17.134;2023-10-08T01:00:14;6.22;;;3.30;;
12407;SDS011;6268;48.188;17.134;2023-10-08T01:02:49;6.90;;;3.55;;
12407;SDS011;6268;48.188;17.134;2023-10-08T01:05:27;5.88;;;3.83;;
12407;SDS011;6268;48.188;17.134;2023-10-08T01:08:14;4.85;;;3.83;;
12407;SDS011;6268;48.188;17.134;2023-10-08T01:10:51;5.43;;;3.42;;
12407;SDS011;6268;48.188;17.134;2023-10-08T01:13:30;4.65;;;3.05;;
12407;SDS011;6268;48.188;17.134;2023-10-08T01:16:12;4.47;;;3.22;;
12407;SDS011;6268;48.188;17.134;2023-10-08T01:18:41;6.63;;;2.80;;
12407;SDS011;6268;48.188;17.134;2023-10-08T01:21:17;3.75;;;3.40;;
12407;SDS011;6268;48.188;17.134;2023-10-08T01:24:02;5.57;;;3.50;;
12407;SDS011;6268;48.188;17.134;2023-10-08T01:26:33;4.90;;;3.03;;
12407;SDS011;6268;48.188;17.134;2023-10-08T01:29:08;5.03;;;3.00;;
12407;SDS011;6268;48.188;17.134;2023-10-08T01:31:38;3.40;;;3.10;;
12407;SDS011;6268;48.188;17.134;2023-10-08T01:34:07;4.07;;;3.25;;
12407;SDS011;6268;48.188;17.134;2023-10-08T01:36:42;10.93;;;3.50;;
12407;SDS011;6268;48.188;17.134;2023-10-08T01:39:12;4.28;;;3.10;;
12407;SDS011;6268;48.188;17.134;2023-10-08T01:41:43;5.28;;;3.20;;
12407;SDS011;6268;48.188;17.134;2023-10-08T01:44:13;5.10;;;3.38;;
12407;SDS011;6268;48.188;17.134;2023-10-08T01:46:43;4.88;;;3.00;;
12407;SDS011;6268;48.188;17.134;2023-10-08T01:49:16;4.95;;;3.53;;
12407;SDS011;6268;48.188;17.134;2023-10-08T01:51:48;6.20;;;3.45;;
12407;SDS011;6268;48.188;17.134;2023-10-08T01:54:18;4.03;;;3.42;;
12407;SDS011;6268;48.188;17.134;2023-10-08T01:56:48;2.97;;;2.72;;
12407;SDS011;6268;48.188;17.134;2023-10-08T01:59:17;3.83;;;3.20;;
12407;SDS011;6268;48.188;17.134;2023-10-08T02:01:45;4.18;;;2.78;;
12407;SDS011;6268;48.188;17.134;2023-10-08T02:04:14;4.13;;;3.33;;
12407;SDS011;6268;48.188;17.134;2023-10-08T02:06:44;3.75;;;3.22;;
12407;SDS011;6268;48.188;17.134;2023-10-08T02:09:13;8.05;;;3.50;;
12407;SDS011;6268;48.188;17.134;2023-10-08T02:11:56;3.53;;;3.00;;
12407;SDS011;6268;48.188;17.134;2023-10-08T02:14:25;5.38;;;3.60;;
12407;SDS011;6268;48.188;17.134;2023-10-08T02:16:57;4.22;;;3.15;;
12407;SDS011;6268;48.188;17.134;2023-10-08T02:19:30;5.68;;;3.10;;
12407;SDS011;6268;48.188;17.134;2023-10-08T02:21:58;3.17;;;2.88;;
12407;SDS011;6268;48.188;17.134;2023-10-08T02:24:26;4.82;;;3.30;;
12407;SDS011;6268;48.188;17.134;2023-10-08T02:26:58;8.02;;;3.58;;
12407;SDS011;6268;48.188;17.134;2023-10-08T02:29:27;6.38;;;3.35;;
12407;SDS011;6268;48.188;17.134;2023-10-08T02:31:57;4.40;;;3.47;;
12407;SDS011;6268;48.188;17.134;2023-10-08T02:34:26;4.10;;;3.10;;
12407;SDS011;6268;48.188;17.134;2023-10-08T02:36:57;4.15;;;3.40;;
12407;SDS011;6268;48.188;17.134;2023-10-08T02:39:26;5.88;;;3.30;;
12407;SDS011;6268;48.188;17.134;2023-10-08T02:41:55;4.57;;;3.70;;
12407;SDS011;6268;48.188;17.134;2023-10-08T02:44:28;3.83;;;3.28;;
12407;SDS011;6268;48.188;17.134;2023-10-08T02:46:57;5.35;;;3.80;;
12407;SDS011;6268;48.188;17.134;2023-10-08T02:49:26;7.13;;;3.50;;
12407;SDS011;6268;48.188;17.134;2023-10-08T02:51:58;4.20;;;3.25;;
12407;SDS011;6268;48.188;17.134;2023-10-08T02:54:27;5.55;;;3.47;;
12407;SDS011;6268;48.188;17.134;2023-10-08T02:57:03;5.07;;;3.42;;
12407;SDS011;6268;48.188;17.134;2023-10-08T02:59:38;5.80;;;3.70;;
12407;SDS011;6268;48.188;17.134;2023-10-08T03:02:08;5.30;;;3.35;;
12407;SDS011;6268;48.188;17.134;2023-10-08T03:04:42;6.53;;;4.00;;
12407;SDS011;6268;48.188;17.134;2023-10-08T03:07:12;3.90;;;3.10;;
12407;SDS011;6268;48.188;17.134;2023-10-08T03:09:48;3.88;;;3.35;;
12407;SDS011;6268;48.188;17.134;2023-10-08T03:12:22;6.32;;;3.40;;
12407;SDS011;6268;48.188;17.134;2023-10-08T03:14:53;4.05;;;3.28;;
12407;SDS011;6268;48.188;17.134;2023-10-08T03:17:39;6.53;;;3.78;;
12407;SDS011;6268;48.188;17.134;2023-10-08T03:20:16;3.55;;;3.22;;
12407;SDS011;6268;48.188;17.134;2023-10-08T03:22:58;5.07;;;3.63;;
12407;SDS011;6268;48.188;17.134;2023-10-08T03:25:31;4.88;;;3.63;;
12407;SDS011;6268;48.188;17.134;2023-10-08T03:28:08;4.35;;;3.70;;
12407;SDS011;6268;48.188;17.134;2023-10-08T03:30:41;5.40;;;3.55;;
12407;SDS011;6268;48.188;17.134;2023-10-08T03:33:16;5.25;;;4.30;;
12407;SDS011;6268;48.188;17.134;2023-10-08T03:35:50;6.80;;;3.90;;
12407;SDS011;6268;48.188;17.134;2023-10-08T03:38:22;4.50;;;3.97;;
12407;SDS011;6268;48.188;17.134;2023-10-08T03:41:06;4.97;;;3.40;;
12407;SDS011;6268;48.188;17.134;2023-10-08T03:43:42;4.35;;;3.10;;
12407;SDS011;6268;48.188;17.134;2023-10-08T03:46:21;5.43;;;3.60;;
12407;SDS011;6268;48.188;17.134;2023-10-08T03:48:50;4.13;;;3.53;;
12407;SDS011;6268;48.188;17.134;2023-10-08T03:51:19;5.40;;;3.67;;
12407;SDS011;6268;48.188;17.134;2023-10-08T03:53:48;5.03;;;3.35;;
12407;SDS011;6268;48.188;17.134;2023-10-08T03:56:26;6.32;;;3.97;;
12407;SDS011;6268;48.188;17.134;2023-10-08T03:58:57;5.00;;;3.47;;
12407;SDS011;6268;48.188;17.134;2023-10-08T04:01:29;3.45;;;2.97;;
12407;SDS011;6268;48.188;17.134;2023-10-08T04:03:58;4.55;;;3.35;;
12407;SDS011;6268;48.188;17.134;2023-10-08T04:06:28;4.15;;;3.20;;
12407;SDS011;6268;48.188;17.134;2023-10-08T04:08:59;3.80;;;3.40;;
12407;SDS011;6268;48.188;17.134;2023-10-08T04:11:43;6.15;;;3.55;;
12407;SDS011;6268;48.188;17.134;2023-10-08T04:14:24;7.25;;;3.65;;
12407;SDS011;6268;48.188;17.134;2023-10-08T04:16:56;4.20;;;3.55;;
12407;SDS011;6268;48.188;17.134;2023-10-08T04:19:26;7.13;;;4.30;;
12407;SDS011;6268;48.188;17.134;2023-10-08T04:21:54;4.20;;;3.10;;
12407;SDS011;6268;48.188;17.134;2023-10-08T04:24:23;3.38;;;3.08;;
12407;SDS011;6268;48.188;17.134;2023-10-08T04:26:56;4.07;;;3.33;;
12407;SDS011;6268;48.188;17.134;2023-10-08T04:29:25;4.15;;;3.42;;
12407;SDS011;6268;48.188;17.134;2023-10-08T04:32:00;4.95;;;3.42;;
12407;SDS011;6268;48.188;17.134;2023-10-08T04:34:34;3.47;;;3.08;;
12407;SDS011;6268;48.188;17.134;2023-10-08T04:37:03;4.40;;;3.45;;
12407;SDS011;6268;48.188;17.134;2023-10-08T04:39:39;9.95;;;3.75;;
12407;SDS011;6268;48.188;17.134;2023-10-08T04:42:14;5.75;;;3.80;;
12407;SDS011;6268;48.188;17.134;2023-10-08T04:44:52;4.03;;;3.50;;
12407;SDS011;6268;48.188;17.134;2023-10-08T04:47:24;4.45;;;3.60;;
12407;SDS011;6268;48.188;17.134;2023-10-08T04:49:59;3.80;;;3.50;;
12407;SDS011;6268;48.188;17.134;2023-10-08T04:52:31;4.32;;;3.40;;
12407;SDS011;6268;48.188;17.134;2023-10-08T04:55:01;4.72;;;3.42;;
12407;SDS011;6268;48.188;17.134;2023-10-08T04:57:40;4.15;;;3.65;;
12407;SDS011;6268;48.188;17.134;2023-10-08T05:00:10;5.45;;;3.85;;
12407;SDS011;6268;48.188;17.134;2023-10-08T05:02:43;6.18;;;3.58;;
12407;SDS011;6268;48.188;17.134;2023-10-08T05:05:17;6.00;;;3.47;;
12407;SDS011;6268;48.188;17.134;2023-10-08T05:07:56;6.40;;;3.90;;
12407;SDS011;6268;48.188;17.134;2023-10-08T05:10:44;5.68;;;3.45;;
12407;SDS011;6268;48.188;17.134;2023-10-08T05:13:28;3.80;;;3.45;;
12407;SDS011;6268;48.188;17.134;2023-10-08T05:16:01;6.63;;;3.70;;
12407;SDS011;6268;48.188;17.134;2023-10-08T05:18:40;5.82;;;3.50;;
12407;SDS011;6268;48.188;17.134;2023-10-08T05:21:26;5.15;;;3.60;;
12407;SDS011;6268;48.188;17.134;2023-10-08T05:24:07;3.63;;;3.28;;
12407;SDS011;6268;48.188;17.134;2023-10-08T05:26:38;4.75;;;3.55;;
12407;SDS011;6268;48.188;17.134;2023-10-08T05:29:12;4.20;;;3.30;;
12407;SDS011;6268;48.188;17.134;2023-10-08T05:31:58;5.15;;;3.50;;
12407;SDS011;6268;48.188;17.134;2023-10-08T05:34:41;4.25;;;3.55;;
12407;SDS011;6268;48.188;17.134;2023-10-08T05:37:17;3.53;;;3.20;;
12407;SDS011;6268;48.188;17.134;2023-10-08T05:40:02;9.88;;;3.55;;
12407;SDS011;6268;48.188;17.134;2023-10-08T05:42:48;4.68;;;3.45;;
12407;SDS011;6268;48.188;17.134;2023-10-08T05:45:27;7.85;;;3.45;;
12407;SDS011;6268;48.188;17.134;2023-10-08T05:48:02;6.32;;;3.72;;
12407;SDS011;6268;48.188;17.134;2023-10-08T05:50:43;3.78;;;3.25;;
12407;SDS011;6268;48.188;17.134;2023-10-08T05:53:23;5.10;;;4.60;;
12407;SDS011;6268;48.188;17.134;2023-10-08T05:56:10;5.57;;;3.67;;
12407;SDS011;6268;48.188;17.134;2023-10-08T05:58:56;5.55;;;4.00;;
12407;SDS011;6268;48.188;17.134;2023-10-08T06:01:41;4.10;;;3.80;;
12407;SDS011;6268;48.188;17.134;2023-10-08T06:04:12;7.32;;;3.50;;
12407;SDS011;6268;48.188;17.134;2023-10-08T06:07:10;4.63;;;3.53;;
12407;SDS011;6268;48.188;17.134;2023-10-08T06:09:59;7.07;;;3.40;;
12407;SDS011;6268;48.188;17.134;2023-10-08T06:12:29;3.70;;;3.30;;
12407;SDS011;6268;48.188;17.134;2023-10-08T06:15:06;5.93;;;3.95;;
12407;SDS011;6268;48.188;17.134;2023-10-08T06:17:35;5.18;;;3.17;;
12407;SDS011;6268;48.188;17.134;2023-10-08T06:20:24;5.88;;;3.75;;
12407;SDS011;6268;48.188;17.134;2023-10-08T06:22:55;6.55;;;4.05;;
12407;SDS011;6268;48.188;17.134;2023-10-08T06:25:28;5.40;;;3.60;;
12407;SDS011;6268;48.188;17.134;2023-10-08T06:27:57;5.38;;;3.38;;
12407;SDS011;6268;48.188;17.134;2023-10-08T06:30:25;5.18;;;3.40;;
12407;SDS011;6268;48.188;17.134;2023-10-08T06:33:01;7.18;;;4.68;;
12407;SDS011;6268;48.188;17.134;2023-10-08T06:35:31;5.97;;;4.22;;
12407;SDS011;6268;48.188;17.134;2023-10-08T06:38:01;4.65;;;3.33;;
12407;SDS011;6268;48.188;17.134;2023-10-08T06:40:34;4.97;;;3.42;;
12407;SDS011;6268;48.188;17.134;2023-10-08T06:43:09;5.90;;;3.25;;
12407;SDS011;6268;48.188;17.134;2023-10-08T06:45:51;3.63;;;2.90;;
12407;SDS011;6268;48.188;17.134;2023-10-08T06:48:21;6.80;;;3.30;;
12407;SDS011;6268;48.188;17.134;2023-10-08T06:50:51;4.63;;;3.38;;
12407;SDS011;6268;48.188;17.134;2023-10-08T06:53:25;5.25;;;3.40;;
12407;SDS011;6268;48.188;17.134;2023-10-08T06:55:56;6.60;;;3.58;;
12407;SDS011;6268;48.188;17.134;2023-10-08T06:58:30;5.90;;;3.28;;
12407;SDS011;6268;48.188;17.134;2023-10-08T07:01:00;6.70;;;3.28;;
12407;SDS011;6268;48.188;17.134;2023-10-08T07:03:32;8.00;;;3.67;;
12407;SDS011;6268;48.188;17.134;2023-10-08T07:06:01;8.88;;;3.35;;
12407;SDS011;6268;48.188;17.134;2023-10-08T07:08:44;6.50;;;3.65;;
12407;SDS011;6268;48.188;17.134;2023-10-08T07:11:21;7.45;;;3.80;;
12407;SDS011;6268;48.188;17.134;2023-10-08T07:13:50;6.60;;;3.28;;
12407;SDS011;6268;48.188;17.134;2023-10-08T07:16:19;5.45;;;3.58;;
12407;SDS011;6268;48.188;17.134;2023-10-08T07:18:47;4.75;;;3.30;;
12407;SDS011;6268;48.188;17.134;2023-10-08T07:21:18;7.40;;;3.17;;
12407;SDS011;6268;48.188;17.134;2023-10-08T07:23:57;11.05;;;3.33;;
12407;SDS011;6268;48.188;17.134;2023-10-08T07:26:26;4.57;;;3.55;;
12407;SDS011;6268;48.188;17.134;2023-10-08T07:29:03;5.00;;;3.30;;
12407;SDS011;6268;48.188;17.134;2023-10-08T07:31:35;6.43;;;3.45;;
12407;SDS011;6268;48.188;17.134;2023-10-08T07:34:04;6.65;;;3.13;;
12407;SDS011;6268;48.188;17.134;2023-10-08T07:36:45;5.53;;;3.60;;
12407;SDS011;6268;48.188;17.134;2023-10-08T07:39:17;8.95;;;4.38;;
12407;SDS011;6268;48.188;17.134;2023-10-08T07:42:01;5.10;;;3.30;;
12407;SDS011;6268;48.188;17.134;2023-10-08T07:44:34;4.75;;;3.60;;
12407;SDS011;6268;48.188;17.134;2023-10-08T07:47:06;8.25;;;4.78;;
12407;SDS011;6268;48.188;17.134;2023-10-08T07:49:38;6.70;;;3.20;;
12407;SDS011;6268;48.188;17.134;2023-10-08T07:52:10;11.07;;;5.30;;
12407;SDS011;6268;48.188;17.134;2023-10-08T07:54:44;4.97;;;3.75;;
12407;SDS011;6268;48.188;17.134;2023-10-08T07:57:14;5.43;;;3.33;;
12407;SDS011;6268;48.188;17.134;2023-10-08T07:59:53;6.38;;;3.63;;
12407;SDS011;6268;48.188;17.134;2023-10-08T08:02:28;6.25;;;3.10;;
12407;SDS011;6268;48.188;17.134;2023-10-08T08:04:57;5.38;;;2.90;;
12407;SDS011;6268;48.188;17.134;2023-10-08T08:07:26;6.80;;;3.38;;
12407;SDS011;6268;48.188;17.134;2023-10-08T08:09:56;4.45;;;3.60;;
12407;SDS011;6268;48.188;17.134;2023-10-08T08:12:27;9.73;;;3.88;;
12407;SDS011;6268;48.188;17.134;2023-10-08T08:14:59;8.18;;;3.55;;
12407;SDS011;6268;48.188;17.134;2023-10-08T08:17:30;9.88;;;3.55;;
12407;SDS011;6268;48.188;17.134;2023-10-08T08:20:00;10.00;;;3.90;;
12407;SDS011;6268;48.188;17.134;2023-10-08T08:22:44;6.97;;;3.65;;
12407;SDS011;6268;48.188;17.134;2023-10-08T08:25:18;19.77;;;14.73;;
12407;SDS011;6268;48.188;17.134;2023-10-08T08:28:01;9.80;;;7.40;;
12407;SDS011;6268;48.188;17.134;2023-10-08T08:30:32;7.68;;;3.97;;
12407;SDS011;6268;48.188;17.134;2023-10-08T08:33:03;8.68;;;3.97;;
12407;SDS011;6268;48.188;17.134;2023-10-08T08:35:37;18.35;;;4.68;;
12407;SDS011;6268;48.188;17.134;2023-10-08T08:38:06;11.48;;;3.30;;
12407;SDS011;6268;48.188;17.134;2023-10-08T08:40:37;12.70;;;2.80;;
12407;SDS011;6268;48.188;17.134;2023-10-08T08:43:06;7.75;;;2.42;;
12407;SDS011;6268;48.188;17.134;2023-10-08T08:45:38;5.57;;;1.98;;
12407;SDS011;6268;48.188;17.134;2023-10-08T08:48:08;4.28;;;1.38;;
12407;SDS011;6268;48.188;17.134;2023-10-08T08:50:37;3.58;;;1.05;;
12407;SDS011;6268;48.188;17.134;2023-10-08T08:53:06;4.72;;;4.00;;
12407;SDS011;6268;48.188;17.134;2023-10-08T08:55:37;2.30;;;1.05;;
12407;SDS011;6268;48.188;17.134;2023-10-08T08:58:06;4.70;;;1.05;;
12407;SDS011;6268;48.188;17.134;2023-10-08T09:00:37;1.75;;;0.70;;
12407;SDS011;6268;48.188;17.134;2023-10-08T09:03:07;1.77;;;0.60;;
12407;SDS011;6268;48.188;17.134;2023-10-08T09:05:40;1.20;;;0.50;;
12407;SDS011;6268;48.188;17.134;2023-10-08T09:08:09;1.20;;;1.10;;
12407;SDS011;6268;48.188;17.134;2023-10-08T09:10:39;0.65;;;0.30;;
12407;SDS011;6268;48.188;17.134;2023-10-08T09:13:19;2.15;;;0.63;;
12407;SDS011;6268;48.188;17.134;2023-10-08T09:15:49;2.17;;;0.50;;
12407;SDS011;6268;48.188;17.134;2023-10-08T09:18:22;0.20;;;0.20;;
12407;SDS011;6268;48.188;17.134;2023-10-08T09:20:54;0.20;;;0.20;;
12407;SDS011;6268;48.188;17.134;2023-10-08T09:23:23;5.90;;;2.90;;
12407;SDS011;6268;48.188;17.134;2023-10-08T09:25:53;1.67;;;1.25;;
12407;SDS011;6268;48.188;17.134;2023-10-08T09:28:30;5.68;;;2.65;;
12407;SDS011;6268;48.188;17.134;2023-10-08T09:31:01;0.88;;;0.30;;
12407;SDS011;6268;48.188;17.134;2023-10-08T09:33:31;0.30;;;0.30;;
12407;SDS011;6268;48.188;17.134;2023-10-08T09:36:00;0.30;;;0.30;;
12407;SDS011;6268;48.188;17.134;2023-10-08T09:38:32;1.42;;;0.40;;
12407;SDS011;6268;48.188;17.134;2023-10-08T09:41:02;1.30;;;0.60;;
12407;SDS011;6268;48.188;17.134;2023-10-08T09:43:34;0.63;;;0.63;;
12407;SDS011;6268;48.188;17.134;2023-10-08T09:46:08;0.32;;;0.20;;
12407;SDS011;6268;48.188;17.134;2023-10-08T09:48:41;0.20;;;0.20;;
12407;SDS011;6268;48.188;17.134;2023-10-08T09:51:15;0.30;;;0.30;;
12407;SDS011;6268;48.188;17.134;2023-10-08T09:53:47;0.80;;;0.25;;
12407;SDS011;6268;48.188;17.134;2023-10-08T09:56:22;0.38;;;0.30;;
12407;SDS011;6268;48.188;17.134;2023-10-08T09:58:52;2.28;;;0.30;;
12407;SDS011;6268;48.188;17.134;2023-10-08T10:01:20;0.85;;;0.40;;
12407;SDS011;6268;48.188;17.134;2023-10-08T10:03:49;0.10;;;0.10;;
12407;SDS011;6268;48.188;17.134;2023-10-08T10:06:19;1.17;;;1.15;;
12407;SDS011;6268;48.188;17.134;2023-10-08T10:08:48;2.58;;;2.40;;
12407;SDS011;6268;48.188;17.134;2023-10-08T10:11:17;1.30;;;1.20;;
12407;SDS011;6268;48.188;17.134;2023-10-08T10:13:50;0.68;;;0.50;;
12407;SDS011;6268;48.188;17.134;2023-10-08T10:16:26;0.38;;;0.30;;
12407;SDS011;6268;48.188;17.134;2023-10-08T10:18:56;0.40;;;0.40;;
12407;SDS011;6268;48.188;17.134;2023-10-08T10:21:27;0.40;;;0.40;;
12407;SDS011;6268;48.188;17.134;2023-10-08T10:23:59;0.38;;;0.38;;
12407;SDS011;6268;48.188;17.134;2023-10-08T10:26:33;1.08;;;0.98;;
12407;SDS011;6268;48.188;17.134;2023-10-08T10:29:20;2.40;;;1.52;;
12407;SDS011;6268;48.188;17.134;2023-10-08T10:31:49;1.30;;;1.20;;
12407;SDS011;6268;48.188;17.134;2023-10-08T10:34:21;1.92;;;1.13;;
12407;SDS011;6268;48.188;17.134;2023-10-08T10:36:54;2.10;;;1.98;;
12407;SDS011;6268;48.188;17.134;2023-10-08T10:39:25;1.00;;;1.00;;
12407;SDS011;6268;48.188;17.134;2023-10-08T10:41:56;1.15;;;0.93;;
12407;SDS011;6268;48.188;17.134;2023-10-08T10:44:30;0.80;;;0.80;;
12407;SDS011;6268;48.188;17.134;2023-10-08T10:47:00;1.05;;;0.60;;
12407;SDS011;6268;48.188;17.134;2023-10-08T10:49:46;0.50;;;0.50;;
12407;SDS011;6268;48.188;17.134;2023-10-08T10:52:20;0.73;;;0.43;;
12407;SDS011;6268;48.188;17.134;2023-10-08T10:55:12;1.95;;;0.50;;
12407;SDS011;6268;48.188;17.134;2023-10-08T10:57:50;1.02;;;0.98;;
12407;SDS011;6268;48.188;17.134;2023-10-08T11:00:26;2.05;;;1.95;;
12407;SDS011;6268;48.188;17.134;2023-10-08T11:03:14;3.78;;;3.50;;
12407;SDS011;6268;48.188;17.134;2023-10-08T11:05:57;1.40;;;1.30;;
12407;SDS011;6268;48.188;17.134;2023-10-08T11:08:33;2.05;;;1.75;;
12407;SDS011;6268;48.188;17.134;2023-10-08T11:11:04;1.48;;;1.30;;
12407;SDS011;6268;48.188;17.134;2023-10-08T11:13:33;0.65;;;0.65;;
12407;SDS011;6268;48.188;17.134;2023-10-08T11:16:07;1.92;;;0.98;;
12407;SDS011;6268;48.188;17.134;2023-10-08T11:18:44;1.33;;;0.95;;
12407;SDS011;6268;48.188;17.134;2023-10-08T11:21:17;1.75;;;1.00;;
12407;SDS011;6268;48.188;17.134;2023-10-08T11:23:51;1.70;;;1.00;;
12407;SDS011;6268;48.188;17.134;2023-10-08T11:26:23;1.17;;;1.13;;
12407;SDS011;6268;48.188;17.134;2023-10-08T11:29:00;1.60;;;0.90;;
12407;SDS011;6268;48.188;17.134;2023-10-08T11:31:31;1.15;;;1.05;;
12407;SDS011;6268;48.188;17.134;2023-10-08T11:34:02;1.30;;;1.30;;
12407;SDS011;6268;48.188;17.134;2023-10-08T11:36:36;1.23;;;0.80;;
12407;SDS011;6268;48.188;17.134;2023-10-08T11:39:16;1.00;;;1.00;;
12407;SDS011;6268;48.188;17.134;2023-10-08T11:42:00;1.30;;;1.23;;
12407;SDS011;6268;48.188;17.134;2023-10-08T11:44:33;2.17;;;2.08;;
12407;SDS011;6268;48.188;17.134;2023-10-08T11:47:05;1.75;;;1.65;;
12407;SDS011;6268;48.188;17.134;2023-10-08T11:49:40;4.82;;;1.70;;
12407;SDS011;6268;48.188;17.134;2023-10-08T11:52:14;0.80;;;0.80;;
12407;SDS011;6268;48.188;17.134;2023-10-08T11:54:43;1.15;;;1.13;;
12407;SDS011;6268;48.188;17.134;2023-10-08T11:57:15;1.00;;;0.95;;
12407;SDS011;6268;48.188;17.134;2023-10-08T11:59:49;2.05;;;0.98;;
12407;SDS011;6268;48.188;17.134;2023-10-08T12:02:23;1.00;;;1.00;;
12407;SDS011;6268;48.188;17.134;2023-10-08T12:04:52;0.80;;;0.80;;
12407;SDS011;6268;48.188;17.134;2023-10-08T12:07:24;0.82;;;0.82;;
12407;SDS011;6268;48.188;17.134;2023-10-08T12:09:54;1.00;;;0.90;;
12407;SDS011;6268;48.188;17.134;2023-10-08T12:12:23;1.67;;;1.58;;
12407;SDS011;6268;48.188;17.134;2023-10-08T12:14:54;1.48;;;1.38;;
12407;SDS011;6268;48.188;17.134;2023-10-08T12:17:24;1.58;;;1.08;;
12407;SDS011;6268;48.188;17.134;2023-10-08T12:20:05;1.40;;;1.30;;
12407;SDS011;6268;48.188;17.134;2023-10-08T12:22:50;2.25;;;1.20;;
12407;SDS011;6268;48.188;17.134;2023-10-08T12:25:19;1.00;;;0.98;;
12407;SDS011;6268;48.188;17.134;2023-10-08T12:27:49;0.80;;;0.80;;
12407;SDS011;6268;48.188;17.134;2023-10-08T12:30:17;0.80;;;0.80;;
12407;SDS011;6268;48.188;17.134;2023-10-08T12:32:59;0.95;;;0.93;;
12407;SDS011;6268;48.188;17.134;2023-10-08T12:35:28;1.38;;;1.20;;
12407;SDS011;6268;48.188;17.134;2023-10-08T12:37:57;1.90;;;1.13;;
12407;SDS011;6268;48.188;17.134;2023-10-08T12:40:25;1.00;;;0.90;;
12407;SDS011;6268;48.188;17.134;2023-10-08T12:43:09;3.97;;;1.63;;
12407;SDS011;6268;48.188;17.134;2023-10-08T12:45:37;1.20;;;1.10;;
12407;SDS011;6268;48.188;17.134;2023-10-08T12:48:07;1.45;;;0.95;;
12407;SDS011;6268;48.188;17.134;2023-10-08T12:50:36;1.15;;;1.05;;
12407;SDS011;6268;48.188;17.134;2023-10-08T12:53:10;1.50;;;1.40;;
12407;SDS011;6268;48.188;17.134;2023-10-08T12:55:39;1.48;;;1.23;;
12407;SDS011;6268;48.188;17.134;2023-10-08T12:58:07;1.58;;;1.48;;
12407;SDS011;6268;48.188;17.134;2023-10-08T13:00:37;2.50;;;1.52;;
12407;SDS011;6268;48.188;17.134;2023-10-08T13:03:09;3.25;;;2.92;;
12407;SDS011;6268;48.188;17.134;2023-10-08T13:05:42;1.63;;;1.40;;
12407;SDS011;6268;48.188;17.134;2023-10-08T13:08:12;1.70;;;1.60;;
12407;SDS011;6268;48.188;17.134;2023-10-08T13:10:40;2.67;;;2.10;;
12407;SDS011;6268;48.188;17.134;2023-10-08T13:13:11;1.45;;;1.35;;
12407;SDS011;6268;48.188;17.134;2023-10-08T13:15:40;3.00;;;1.30;;
12407;SDS011;6268;48.188;17.134;2023-10-08T13:18:11;1.50;;;1.40;;
12407;SDS011;6268;48.188;17.134;2023-10-08T13:20:39;1.75;;;1.30;;
12407;SDS011;6268;48.188;17.134;2023-10-08T13:23:11;1.63;;;1.10;;
12407;SDS011;6268;48.188;17.134;2023-10-08T13:25:40;1.35;;;1.27;;
12407;SDS011;6268;48.188;17.134;2023-10-08T13:28:08;1.10;;;1.00;;
12407;SDS011;6268;48.188;17.134;2023-10-08T13:30:38;1.00;;;0.95;;
12407;SDS011;6268;48.188;17.134;2023-10-08T13:33:07;1.92;;;1.27;;
12407;SDS011;6268;48.188;17.134;2023-10-08T13:35:38;3.17;;;1.27;;
12407;SDS011;6268;48.188;17.134;2023-10-08T13:38:06;1.10;;;1.00;;
12407;SDS011;6268;48.188;17.134;2023-10-08T13:40:40;1.20;;;1.10;;
12407;SDS011;6268;48.188;17.134;2023-10-08T13:43:29;1.50;;;1.15;;
12407;SDS011;6268;48.188;17.134;2023-10-08T13:46:02;1.45;;;1.35;;
12407;SDS011;6268;48.188;17.134;2023-10-08T13:48:34;2.17;;;1.40;;
12407;SDS011;6268;48.188;17.134;2023-10-08T13:51:05;2.95;;;2.00;;
12407;SDS011;6268;48.188;17.134;2023-10-08T13:53:40;1.30;;;1.20;;
12407;SDS011;6268;48.188;17.134;2023-10-08T13:56:12;1.42;;;1.15;;
12407;SDS011;6268;48.188;17.134;2023-10-08T13:58:41;2.67;;;1.48;;
12407;SDS011;6268;48.188;17.134;2023-10-08T14:01:13;1.60;;;1.30;;
12407;SDS011;6268;48.188;17.134;2023-10-08T14:03:47;1.90;;;1.42;;
12407;SDS011;6268;48.188;17.134;2023-10-08T14:06:17;1.52;;;1.20;;
12407;SDS011;6268;48.188;17.134;2023-10-08T14:08:46;2.03;;;1.20;;
12407;SDS011;6268;48.188;17.134;2023-10-08T14:11:18;1.92;;;1.67;;
12407;SDS011;6268;48.188;17.134;2023-10-08T14:13:50;1.63;;;1.50;;
12407;SDS011;6268;48.188;17.134;2023-10-08T14:16:19;1.63;;;1.50;;
12407;SDS011;6268;48.188;17.134;2023-10-08T14:18:50;1.27;;;1.20;;
12407;SDS011;6268;48.188;17.134;2023-10-08T14:21:23;4.60;;;4.30;;
12407;SDS011;6268;48.188;17.134;2023-10-08T14:23:51;2.72;;;2.50;;
12407;SDS011;6268;48.188;17.134;2023-10-08T14:26:23;2.10;;;1.90;;
12407;SDS011;6268;48.188;17.134;2023-10-08T14:28:52;1.65;;;1.55;;
12407;SDS011;6268;48.188;17.134;2023-10-08T14:31:24;1.65;;;1.55;;
12407;SDS011;6268;48.188;17.134;2023-10-08T14:33:53;2.28;;;1.70;;
12407;SDS011;6268;48.188;17.134;2023-10-08T14:36:33;1.23;;;1.13;;
12407;SDS011;6268;48.188;17.134;2023-10-08T14:39:19;1.48;;;1.23;;
12407;SDS011;6268;48.188;17.134;2023-10-08T14:42:12;1.50;;;1.40;;
12407;SDS011;6268;48.188;17.134;2023-10-08T14:44:57;1.58;;;1.48;;
12407;SDS011;6268;48.188;17.134;2023-10-08T14:47:26;1.67;;;1.58;;
12407;SDS011;6268;48.188;17.134;2023-10-08T14:49:55;3.53;;;2.25;;
12407;SDS011;6268;48.188;17.134;2023-10-08T14:52:25;3.40;;;1.73;;
12407;SDS011;6268;48.188;17.134;2023-10-08T14:54:54;1.50;;;1.40;;
12407;SDS011;6268;48.188;17.134;2023-10-08T14:57:23;2.13;;;1.48;;
12407;SDS011;6268;48.188;17.134;2023-10-08T14:59:53;3.40;;;2.40;;
12407;SDS011;6268;48.188;17.134;2023-10-08T15:02:22;3.15;;;2.95;;
12407;SDS011;6268;48.188;17.134;2023-10-08T15:04:55;1.92;;;1.58;;
12407;SDS011;6268;48.188;17.134;2023-10-08T15:07:25;1.92;;;1.77;;
12407;SDS011;6268;48.188;17.134;2023-10-08T15:09:54;2.15;;;1.95;;
12407;SDS011;6268;48.188;17.134;2023-10-08T15:12:24;2.55;;;2.30;;
12407;SDS011;6268;48.188;17.134;2023-10-08T15:14:52;2.30;;;2.10;;
12407;SDS011;6268;48.188;17.134;2023-10-08T15:17:21;2.03;;;1.85;;
12407;SDS011;6268;48.188;17.134;2023-10-08T15:19:50;2.17;;;1.98;;
12407;SDS011;6268;48.188;17.134;2023-10-08T15:22:23;2.38;;;1.85;;
12407;SDS011;6268;48.188;17.134;2023-10-08T15:24:53;3.15;;;1.90;;